Mississippiborg — PCGZ — position and weather

sailwx.info

Track history (hours):
 
Tides and Currents Weather Stations Pressure Air Temp Water Temp Dewpoint Dewpoint Depression Visibility Wind Speed Wind Dir Waves Ship Positions

Mississippiborg

Last reported at 2017-Sep-20 02:33 UTC. Time now 2017-Sep-22 04:29 UTC.
Position N 48°43' W 005°59'.

Length 80 m; draft 5.1 m.

Type: Ship (hazmat cat B). MMSI: 244836543.

Date/timePositionNaut miles runAvg speedWind from/ knotsBaromVisibWave heightAir tempDewpointWater temp
2017-Sep-20 02:33N 48°43' W 005°59'0 9.4
2017-Sep-20 02:30N 48°43' W 005°58'7 9.5
2017-Sep-20 01:48N 48°49' W 005°54'3 9.8
2017-Sep-20 01:30N 48°51' W 005°52'910.2
2017-Sep-20 00:36N 48°58' W 005°42'110.7
2017-Sep-20 00:29N 48°58' W 005°40'511.2
2017-Sep-20 00:00N 49°01' W 005°33'3312.7
2017-Sep-19 21:26N 49°18' W 004°50'912.7
2017-Sep-19 20:45N 49°22' W 004°38'612.1
2017-Sep-19 20:13N 49°25' W 004°30'411.5
2017-Sep-19 19:53N 49°27' W 004°25'511.2
2017-Sep-19 19:25N 49°30' W 004°18'810.6
2017-Sep-19 18:42N 49°34' W 004°07'210.2
2017-Sep-19 18:28N 49°35' W 004°04'6 9.8
2017-Sep-19 17:53N 49°38' W 003°57'4 9.6
2017-Sep-19 17:30N 49°40' W 003°52'6 9.4
2017-Sep-19 16:54N 49°42' W 003°44'4 9.4
2017-Sep-19 16:28N 49°44' W 003°39'4 9.5
2017-Sep-19 16:00N 49°46' W 003°33'510.2
2017-Sep-19 15:30N 49°49' W 003°26'510.9
2017-Sep-19 15:00N 49°52' W 003°19'611.6
2017-Sep-19 14:30N 49°55' W 003°11'612.4
2017-Sep-19 14:00N 49°58' W 003°03'713.0
2017-Sep-19 13:30N 50°00' W 002°53'713.8
2017-Sep-19 13:00N 50°02' W 002°43'3213.7
2017-Sep-19 10:40N 50°11' W 001°55'212.0
2017-Sep-19 10:30N 50°12' W 001°52'611.4
2017-Sep-19 10:00N 50°13' W 001°44'510.5
2017-Sep-19 09:30N 50°14' W 001°36'5 9.7
2017-Sep-19 09:00N 50°16' W 001°28'5 9.1
2017-Sep-19 08:30N 50°17' W 001°22'4 8.7
2017-Sep-19 08:00N 50°18' W 001°15'33 9.4
2017-Sep-19 04:30N 50°27' W 000°25'612.2
2017-Sep-19 04:00N 50°29' W 000°16'612.7
2017-Sep-19 03:30N 50°31' W 000°06'612.9
2017-Sep-19 03:00N 50°32' E 000°03'613.1
2017-Sep-19 02:30N 50°34' E 000°13'713.1
2017-Sep-19 02:00N 50°36' E 000°23'612.8
2017-Sep-19 01:30N 50°38' E 000°33'612.3
2017-Sep-19 01:00N 50°41' E 000°41'611.9
2017-Sep-19 00:30N 50°44' E 000°49'611.1
2017-Sep-19 00:00N 50°48' E 000°56'510.5
2017-Sep-18 23:29N 50°51' E 001°03'510.0
2017-Sep-18 22:57N 50°55' E 001°09'4 9.7
2017-Sep-18 22:30N 50°57' E 001°14'5 9.4
2017-Sep-18 22:00N 51°00' E 001°20'5 9.4
2017-Sep-18 21:30N 51°03' E 001°26'510.5
2017-Sep-18 21:00N 51°06' E 001°32'611.5
2017-Sep-18 20:30N 51°10' E 001°39'612.3
2017-Sep-18 20:00N 51°14' E 001°47'713.5
2017-Sep-18 19:30N 51°20' E 001°52'713.8
2017-Sep-18 19:00N 51°26' E 001°57'713.6
2017-Sep-18 18:30N 51°31' E 002°04'713.2
2017-Sep-18 18:00N 51°36' E 002°11'42911.2
2017-Sep-17 03:51N 57°27' E 009°15'411.4
2017-Sep-17 03:29N 57°30' E 009°22'611.4
2017-Sep-17 02:59N 57°33' E 009°30'611.3
2017-Sep-17 02:30N 57°36' E 009°39'511.1
2017-Sep-17 02:00N 57°38' E 009°48'610.9
2017-Sep-17 01:28N 57°41' E 009°57'510.8
2017-Sep-17 01:00N 57°43' E 010°06'510.7
2017-Sep-17 00:30N 57°45' E 010°16'510.8
2017-Sep-17 00:00N 57°47' E 010°25'510.5
2017-Sep-16 23:30N 57°48' E 010°35'610.9
2017-Sep-16 22:59N 57°48' E 010°45'611.4
2017-Sep-16 22:30N 57°45' E 010°54'611.8
2017-Sep-16 22:01N 57°41' E 011°02'612.4
2017-Sep-16 21:30N 57°37' E 011°11'612.7
2017-Sep-16 21:00N 57°32' E 011°19'611.2
2017-Sep-16 20:30N 57°33' E 011°30'611.2
2017-Sep-16 20:00N 57°35' E 011°39'1 2.0
2017-Sep-16 19:27N 57°35' E 011°41'0 0.0
2017-Sep-16 19:00N 57°35' E 011°41'0 0.0
2017-Sep-16 18:30N 57°35' E 011°41'0 0.0
2017-Sep-16 18:00N 57°35' E 011°41'0 0.0
2017-Sep-16 17:30N 57°35' E 011°41'0 0.0
2017-Sep-16 17:00N 57°35' E 011°41'0 0.0
2017-Sep-16 16:27N 57°35' E 011°41'0 0.0
2017-Sep-16 16:00N 57°35' E 011°41'0 0.0
2017-Sep-16 15:30N 57°35' E 011°41'0 0.0
2017-Sep-16 15:01N 57°35' E 011°41'1 2.0
2017-Sep-16 14:30N 57°35' E 011°39'5 9.2
2017-Sep-16 14:00N 57°35' E 011°31'611.9
2017-Sep-16 13:30N 57°37' E 011°20'611.8
2017-Sep-16 13:00N 57°38' E 011°09'611.0
2017-Sep-16 12:28N 57°40' E 010°59'611.6
2017-Sep-16 11:59N 57°41' E 010°49'611.3
2017-Sep-16 11:29N 57°42' E 010°38'1 0.3
2017-Sep-16 09:58N 57°42' E 010°37'0 0.0
2017-Sep-16 09:22N 57°42' E 010°37'0 0.0
2017-Sep-16 08:55N 57°42' E 010°37'0 0.0
2017-Sep-16 08:22N 57°42' E 010°37'0 0.0
2017-Sep-16 07:16N 57°42' E 010°37'0 0.0
2017-Sep-16 06:58N 57°42' E 010°37'0 0.0
2017-Sep-16 06:04N 57°42' E 010°37'0 0.1
2017-Sep-16 05:55N 57°42' E 010°37'0 0.1
2017-Sep-16 05:28N 57°42' E 010°37'3 6.2
2017-Sep-16 05:00N 57°41' E 010°41'611.4
2017-Sep-16 04:30N 57°38' E 010°51'611.5
2017-Sep-16 04:00N 57°35' E 011°00'611.8
2017-Sep-16 03:30N 57°33' E 011°10'611.8
2017-Sep-16 03:00N 57°30' E 011°20'5 9.4
2017-Sep-16 02:30N 57°27' E 011°27'5 9.4
2017-Sep-16 02:00N 57°23' E 011°30'5 9.5
2017-Sep-16 01:30N 57°18' E 011°33'5 9.6
2017-Sep-16 00:59N 57°14' E 011°36'6 9.9
2017-Sep-16 00:24N 57°08' E 011°40'410.0
2017-Sep-15 23:58N 57°04' E 011°43'7 9.8
2017-Sep-15 23:15N 56°58' E 011°48'4 9.4
2017-Sep-15 22:47N 56°54' E 011°51'3 9.5
2017-Sep-15 22:30N 56°52' E 011°54'37 9.6
2017-Sep-15 18:36N 56°18' E 012°22'1 9.3
2017-Sep-15 18:27N 56°16' E 012°23'4 9.6
2017-Sep-15 18:00N 56°13' E 012°28'611.5
2017-Sep-15 17:30N 56°08' E 012°32'510.7
2017-Sep-15 17:00N 56°04' E 012°39'510.1
2017-Sep-15 16:30N 55°59' E 012°42'510.7
2017-Sep-15 16:00N 55°54' E 012°45'510.6
2017-Sep-15 15:30N 55°49' E 012°43'510.7
2017-Sep-15 15:00N 55°44' E 012°41'510.1
2017-Sep-15 14:31N 55°38' E 012°42'4 8.3
2017-Sep-15 14:00N 55°34' E 012°42'5 9.6
2017-Sep-15 13:30N 55°30' E 012°43'611.4
2017-Sep-15 13:00N 55°24' E 012°42'611.4
2017-Sep-15 12:30N 55°18' E 012°42'510.5
2017-Sep-15 12:00N 55°17' E 012°51'510.5
2017-Sep-15 11:31N 55°16' E 012°60'510.5
2017-Sep-15 11:00N 55°15' E 013°09'510.5
2017-Sep-15 10:31N 55°15' E 013°18'3210.5
2017-Sep-15 07:29N 55°14' E 014°14'4 9.4
2017-Sep-15 07:00N 55°16' E 014°20'510.8
2017-Sep-15 06:30N 55°21' E 014°26'510.8
2017-Sep-15 06:00N 55°25' E 014°32'510.6
2017-Sep-15 05:31N 55°28' E 014°39'510.1
2017-Sep-15 05:00N 55°30' E 014°47'510.0
2017-Sep-15 04:30N 55°33' E 014°55'510.4
2017-Sep-15 04:00N 55°35' E 015°03'610.6
2017-Sep-15 03:24N 55°39' E 015°13'  
Track history (hours):
 
Tides and Currents Weather Stations Pressure Air Temp Water Temp Dewpoint Dewpoint Depression Visibility Wind Speed Wind Dir Waves Ship Positions

Mississippiborg

Last reported at 2017-Sep-20 02:33 UTC. Time now 2017-Sep-22 04:29 UTC.
Position N 48°43' W 005°59'.

Length 80 m; draft 5.1 m.

Type: Ship (hazmat cat B). MMSI: 244836543.

Date/timePositionNaut miles runAvg speedWind from/ knotsBaromVisibWave heightAir tempDewpointWater temp
2017-Sep-20 02:33N 48°43' W 005°59'0 9.4
2017-Sep-20 02:30N 48°43' W 005°58'7 9.5
2017-Sep-20 01:48N 48°49' W 005°54'3 9.8
2017-Sep-20 01:30N 48°51' W 005°52'910.2
2017-Sep-20 00:36N 48°58' W 005°42'110.7
2017-Sep-20 00:29N 48°58' W 005°40'511.2
2017-Sep-20 00:00N 49°01' W 005°33'3312.7
2017-Sep-19 21:26N 49°18' W 004°50'912.7
2017-Sep-19 20:45N 49°22' W 004°38'612.1
2017-Sep-19 20:13N 49°25' W 004°30'411.5
2017-Sep-19 19:53N 49°27' W 004°25'511.2
2017-Sep-19 19:25N 49°30' W 004°18'810.6
2017-Sep-19 18:42N 49°34' W 004°07'210.2
2017-Sep-19 18:28N 49°35' W 004°04'6 9.8
2017-Sep-19 17:53N 49°38' W 003°57'4 9.6
2017-Sep-19 17:30N 49°40' W 003°52'6 9.4
2017-Sep-19 16:54N 49°42' W 003°44'4 9.4
2017-Sep-19 16:28N 49°44' W 003°39'4 9.5
2017-Sep-19 16:00N 49°46' W 003°33'510.2
2017-Sep-19 15:30N 49°49' W 003°26'510.9
2017-Sep-19 15:00N 49°52' W 003°19'611.6
2017-Sep-19 14:30N 49°55' W 003°11'612.4
2017-Sep-19 14:00N 49°58' W 003°03'713.0
2017-Sep-19 13:30N 50°00' W 002°53'713.8
2017-Sep-19 13:00N 50°02' W 002°43'3213.7
2017-Sep-19 10:40N 50°11' W 001°55'212.0
2017-Sep-19 10:30N 50°12' W 001°52'611.4
2017-Sep-19 10:00N 50°13' W 001°44'510.5
2017-Sep-19 09:30N 50°14' W 001°36'5 9.7
2017-Sep-19 09:00N 50°16' W 001°28'5 9.1
2017-Sep-19 08:30N 50°17' W 001°22'4 8.7
2017-Sep-19 08:00N 50°18' W 001°15'33 9.4
2017-Sep-19 04:30N 50°27' W 000°25'612.2
2017-Sep-19 04:00N 50°29' W 000°16'612.7
2017-Sep-19 03:30N 50°31' W 000°06'612.9
2017-Sep-19 03:00N 50°32' E 000°03'613.1
2017-Sep-19 02:30N 50°34' E 000°13'713.1
2017-Sep-19 02:00N 50°36' E 000°23'612.8
2017-Sep-19 01:30N 50°38' E 000°33'612.3
2017-Sep-19 01:00N 50°41' E 000°41'611.9
2017-Sep-19 00:30N 50°44' E 000°49'611.1
2017-Sep-19 00:00N 50°48' E 000°56'510.5
2017-Sep-18 23:29N 50°51' E 001°03'510.0
2017-Sep-18 22:57N 50°55' E 001°09'4 9.7
2017-Sep-18 22:30N 50°57' E 001°14'5 9.4
2017-Sep-18 22:00N 51°00' E 001°20'5 9.4
2017-Sep-18 21:30N 51°03' E 001°26'510.5
2017-Sep-18 21:00N 51°06' E 001°32'611.5
2017-Sep-18 20:30N 51°10' E 001°39'612.3
2017-Sep-18 20:00N 51°14' E 001°47'713.5
2017-Sep-18 19:30N 51°20' E 001°52'713.8
2017-Sep-18 19:00N 51°26' E 001°57'713.6
2017-Sep-18 18:30N 51°31' E 002°04'713.2
2017-Sep-18 18:00N 51°36' E 002°11'42911.2
2017-Sep-17 03:51N 57°27' E 009°15'411.4
2017-Sep-17 03:29N 57°30' E 009°22'611.4
2017-Sep-17 02:59N 57°33' E 009°30'611.3
2017-Sep-17 02:30N 57°36' E 009°39'511.1
2017-Sep-17 02:00N 57°38' E 009°48'610.9
2017-Sep-17 01:28N 57°41' E 009°57'510.8
2017-Sep-17 01:00N 57°43' E 010°06'510.7
2017-Sep-17 00:30N 57°45' E 010°16'510.8
2017-Sep-17 00:00N 57°47' E 010°25'510.5
2017-Sep-16 23:30N 57°48' E 010°35'610.9
2017-Sep-16 22:59N 57°48' E 010°45'611.4
2017-Sep-16 22:30N 57°45' E 010°54'611.8
2017-Sep-16 22:01N 57°41' E 011°02'612.4
2017-Sep-16 21:30N 57°37' E 011°11'612.7
2017-Sep-16 21:00N 57°32' E 011°19'611.2
2017-Sep-16 20:30N 57°33' E 011°30'611.2
2017-Sep-16 20:00N 57°35' E 011°39'1 2.0
2017-Sep-16 19:27N 57°35' E 011°41'0 0.0
2017-Sep-16 19:00N 57°35' E 011°41'0 0.0
2017-Sep-16 18:30N 57°35' E 011°41'0 0.0
2017-Sep-16 18:00N 57°35' E 011°41'0 0.0
2017-Sep-16 17:30N 57°35' E 011°41'0 0.0
2017-Sep-16 17:00N 57°35' E 011°41'0 0.0
2017-Sep-16 16:27N 57°35' E 011°41'0 0.0
2017-Sep-16 16:00N 57°35' E 011°41'0 0.0
2017-Sep-16 15:30N 57°35' E 011°41'0 0.0
2017-Sep-16 15:01N 57°35' E 011°41'1 2.0
2017-Sep-16 14:30N 57°35' E 011°39'5 9.2
2017-Sep-16 14:00N 57°35' E 011°31'611.9
2017-Sep-16 13:30N 57°37' E 011°20'611.8
2017-Sep-16 13:00N 57°38' E 011°09'611.0
2017-Sep-16 12:28N 57°40' E 010°59'611.6
2017-Sep-16 11:59N 57°41' E 010°49'611.3
2017-Sep-16 11:29N 57°42' E 010°38'1 0.3
2017-Sep-16 09:58N 57°42' E 010°37'0 0.0
2017-Sep-16 09:22N 57°42' E 010°37'0 0.0
2017-Sep-16 08:55N 57°42' E 010°37'0 0.0
2017-Sep-16 08:22N 57°42' E 010°37'0 0.0
2017-Sep-16 07:16N 57°42' E 010°37'0 0.0
2017-Sep-16 06:58N 57°42' E 010°37'0 0.0
2017-Sep-16 06:04N 57°42' E 010°37'0 0.1
2017-Sep-16 05:55N 57°42' E 010°37'0 0.1
2017-Sep-16 05:28N 57°42' E 010°37'3 6.2
2017-Sep-16 05:00N 57°41' E 010°41'611.4
2017-Sep-16 04:30N 57°38' E 010°51'611.5
2017-Sep-16 04:00N 57°35' E 011°00'611.8
2017-Sep-16 03:30N 57°33' E 011°10'611.8
2017-Sep-16 03:00N 57°30' E 011°20'5 9.4
2017-Sep-16 02:30N 57°27' E 011°27'5 9.4
2017-Sep-16 02:00N 57°23' E 011°30'5 9.5
2017-Sep-16 01:30N 57°18' E 011°33'5 9.6
2017-Sep-16 00:59N 57°14' E 011°36'6 9.9
2017-Sep-16 00:24N 57°08' E 011°40'410.0
2017-Sep-15 23:58N 57°04' E 011°43'7 9.8
2017-Sep-15 23:15N 56°58' E 011°48'4 9.4
2017-Sep-15 22:47N 56°54' E 011°51'3 9.5
2017-Sep-15 22:30N 56°52' E 011°54'37 9.6
2017-Sep-15 18:36N 56°18' E 012°22'1 9.3
2017-Sep-15 18:27N 56°16' E 012°23'4 9.6
2017-Sep-15 18:00N 56°13' E 012°28'611.5
2017-Sep-15 17:30N 56°08' E 012°32'510.7
2017-Sep-15 17:00N 56°04' E 012°39'510.1
2017-Sep-15 16:30N 55°59' E 012°42'510.7
2017-Sep-15 16:00N 55°54' E 012°45'510.6
2017-Sep-15 15:30N 55°49' E 012°43'510.7
2017-Sep-15 15:00N 55°44' E 012°41'510.1
2017-Sep-15 14:31N 55°38' E 012°42'4 8.3
2017-Sep-15 14:00N 55°34' E 012°42'5 9.6
2017-Sep-15 13:30N 55°30' E 012°43'611.4
2017-Sep-15 13:00N 55°24' E 012°42'611.4
2017-Sep-15 12:30N 55°18' E 012°42'510.5
2017-Sep-15 12:00N 55°17' E 012°51'510.5
2017-Sep-15 11:31N 55°16' E 012°60'510.5
2017-Sep-15 11:00N 55°15' E 013°09'510.5
2017-Sep-15 10:31N 55°15' E 013°18'3210.5
2017-Sep-15 07:29N 55°14' E 014°14'4 9.4
2017-Sep-15 07:00N 55°16' E 014°20'510.8
2017-Sep-15 06:30N 55°21' E 014°26'510.8
2017-Sep-15 06:00N 55°25' E 014°32'510.6
2017-Sep-15 05:31N 55°28' E 014°39'510.1
2017-Sep-15 05:00N 55°30' E 014°47'510.0
2017-Sep-15 04:30N 55°33' E 014°55'510.4
2017-Sep-15 04:00N 55°35' E 015°03'610.6
2017-Sep-15 03:24N 55°39' E 015°13'  

Dump ship's entire track history